Hinigaran, Philippines
Current Conditions -  °F | °C
As of 7:00 PM on Wednesday 26 Nov 2014 (Local Time) from RPVM Reporting Station
Overcast Overcast  
Wind Chill: 79°   Ceiling: 9000
Heat Index: 82°   Visibility: 6mi
Dew Point: 75°   Wind: 12mph
Humidity: 89%   Direction: 350°N
Pressure: 29.74"   Gusts: NA
Location:  10.27°N, 122.85°E
Report Text: RPVM 261100Z 35010KT 9999 SCT020 OVC090 26/24 Q1007 RERA RMK A2974
Loading
Personal Weather Stations






























Interactive Weather Map New forecast layout! Learn more

10-Day Weather Forecast

Advertisements
Track Severe Weather on mobile